Terminal Aerodrome Forecast
Issued by NWS

Home | Current Version | Previous Version | Text Only | Print | Product List | Glossary On
Versions: 1 2 3 4 5 6 7 8 9 10 11 12 13 14 15 16 17 18 19 20
803
FTUS43 KDVN 130520
TAFBRL
TAF
KBRL 130520Z 1306/1406 21009KT P6SM OVC080
     FM131600 26015G22KT P6SM OVC050
     FM131800 31020G30KT P6SM OVC035
     FM140000 33015G20KT P6SM BKN050=

USA.gov is the U.S. government's official web portal to all federal, state and local government web resources and services.